createdAt,value
2022-10-03T00:00:14.619Z,9.00
2022-10-03T00:03:10.173Z,10.30
2022-10-03T00:05:44.883Z,6.30
2022-10-03T00:08:18.570Z,8.77
2022-10-03T00:10:55.000Z,11.63
2022-10-03T00:13:26.640Z,7.90
2022-10-03T00:16:03.224Z,16.53
2022-10-03T00:18:37.321Z,13.53
2022-10-03T00:21:15.614Z,7.00
2022-10-03T00:23:47.420Z,11.80
2022-10-03T00:26:28.497Z,10.63
2022-10-03T00:29:15.028Z,12.37
2022-10-03T00:31:47.724Z,9.37
2022-10-03T00:34:21.556Z,12.50
2022-10-03T00:36:52.240Z,9.90
2022-10-03T00:39:37.779Z,11.30
2022-10-03T00:42:44.630Z,9.33
2022-10-03T00:45:37.587Z,10.93
2022-10-03T00:48:47.903Z,9.17
2022-10-03T00:51:24.240Z,8.67
2022-10-03T00:53:58.419Z,17.53
2022-10-03T00:56:35.421Z,12.33
2022-10-03T00:59:15.147Z,9.77
2022-10-03T01:01:45.541Z,13.00
2022-10-03T01:04:34.773Z,10.77
2022-10-03T01:07:07.876Z,17.87
2022-10-03T01:09:46.429Z,10.63
2022-10-03T01:12:22.867Z,12.73
2022-10-03T01:15:11.522Z,11.70
2022-10-03T01:17:48.324Z,9.30
2022-10-03T01:20:29.999Z,9.77
2022-10-03T01:23:19.511Z,8.37
2022-10-03T01:25:51.297Z,10.70
2022-10-03T01:29:00.790Z,10.53
2022-10-03T01:31:31.877Z,16.00
2022-10-03T01:34:02.655Z,13.20
2022-10-03T01:36:33.469Z,13.57
2022-10-03T01:39:03.590Z,8.27
2022-10-03T01:41:46.861Z,12.57
2022-10-03T01:44:19.739Z,8.00
2022-10-03T01:46:49.078Z,12.43
2022-10-03T01:49:20.542Z,16.80
2022-10-03T01:51:53.377Z,15.77
2022-10-03T01:54:29.469Z,8.93
2022-10-03T01:56:59.028Z,11.93
2022-10-03T01:59:34.968Z,16.30
2022-10-03T02:02:05.012Z,8.00
2022-10-03T02:04:38.897Z,14.50
2022-10-03T02:07:09.335Z,10.13
2022-10-03T02:09:40.635Z,22.83
2022-10-03T02:12:14.418Z,13.67
2022-10-03T02:14:48.835Z,14.83
2022-10-03T02:17:24.470Z,10.03
2022-10-03T02:19:56.859Z,16.93
2022-10-03T02:22:33.012Z,11.47
2022-10-03T02:25:20.805Z,11.57
2022-10-03T02:28:15.160Z,9.40
2022-10-03T02:30:55.550Z,19.53
2022-10-03T02:33:38.547Z,14.10
2022-10-03T02:36:27.310Z,9.60
2022-10-03T02:39:39.961Z,14.23
2022-10-03T02:42:40.125Z,10.37
2022-10-03T02:45:39.854Z,12.90
2022-10-03T02:48:33.568Z,10.67
2022-10-03T02:51:33.532Z,13.93
2022-10-03T02:54:39.557Z,8.00
2022-10-03T02:57:39.866Z,11.17
2022-10-03T03:00:10.546Z,14.67
2022-10-03T03:03:33.292Z,12.03
2022-10-03T03:06:31.281Z,11.50
2022-10-03T03:09:30.610Z,7.50
2022-10-03T03:12:29.832Z,14.20
2022-10-03T03:15:28.507Z,12.53
2022-10-03T03:18:00.139Z,15.70
2022-10-03T03:20:45.073Z,9.53
2022-10-03T03:23:26.185Z,12.73
2022-10-03T03:26:15.367Z,11.80
2022-10-03T03:28:47.070Z,13.53
2022-10-03T03:31:16.217Z,11.87
2022-10-03T03:33:53.495Z,7.60
2022-10-03T03:36:26.985Z,11.90
2022-10-03T03:39:00.729Z,13.03
2022-10-03T03:41:38.613Z,15.40
2022-10-03T03:44:15.327Z,14.73
2022-10-03T03:46:50.276Z,8.23
2022-10-03T03:49:31.268Z,13.03
2022-10-03T03:52:08.753Z,11.67
2022-10-03T03:54:50.670Z,13.23
2022-10-03T03:57:26.346Z,15.23
2022-10-03T04:00:07.612Z,13.93
2022-10-03T04:02:47.026Z,12.97
2022-10-03T04:05:21.730Z,12.27
2022-10-03T04:07:58.587Z,13.93
2022-10-03T04:10:38.833Z,10.13
2022-10-03T04:13:47.852Z,11.47
2022-10-03T04:16:43.222Z,22.57
2022-10-03T04:19:13.702Z,15.17
2022-10-03T04:21:57.021Z,12.67
2022-10-03T04:24:48.076Z,14.77
2022-10-03T04:27:26.562Z,9.80
2022-10-03T04:30:00.884Z,9.60
2022-10-03T04:32:46.805Z,13.83
2022-10-03T04:35:26.420Z,11.27
2022-10-03T04:37:57.807Z,16.63
2022-10-03T04:40:31.818Z,10.77
2022-10-03T04:43:06.075Z,8.40
2022-10-03T04:45:47.512Z,11.23
2022-10-03T04:48:17.822Z,10.70
2022-10-03T04:50:47.225Z,15.70
2022-10-03T04:53:21.159Z,16.17
2022-10-03T04:55:50.155Z,14.03
2022-10-03T04:58:27.459Z,12.57
2022-10-03T05:01:01.007Z,14.87
2022-10-03T05:03:35.018Z,14.20
2022-10-03T05:06:06.137Z,14.23
2022-10-03T05:08:38.807Z,10.60
2022-10-03T05:11:14.198Z,12.30
2022-10-03T05:13:56.094Z,10.70
2022-10-03T05:16:30.280Z,19.27
2022-10-03T05:19:02.538Z,14.83
2022-10-03T05:21:34.839Z,11.00
2022-10-03T05:24:05.820Z,10.60
2022-10-03T05:26:45.166Z,13.90
2022-10-03T05:29:20.843Z,10.23
2022-10-03T05:31:53.195Z,16.63
2022-10-03T05:34:27.895Z,12.53
2022-10-03T05:37:07.777Z,13.60
2022-10-03T05:39:42.244Z,18.27
2022-10-03T05:42:23.737Z,10.43
2022-10-03T05:44:59.788Z,11.90
2022-10-03T05:47:49.226Z,10.20
2022-10-03T05:50:43.397Z,14.07
2022-10-03T05:53:42.570Z,12.23
2022-10-03T05:56:12.170Z,16.17
2022-10-03T05:59:02.745Z,17.97
2022-10-03T06:01:56.287Z,10.73
2022-10-03T06:04:34.360Z,14.97
2022-10-03T06:07:09.298Z,10.37
2022-10-03T06:09:58.195Z,10.60
2022-10-03T06:12:28.190Z,14.40
2022-10-03T06:15:19.413Z,16.90
2022-10-03T06:17:58.668Z,10.73
2022-10-03T06:20:41.497Z,11.27
2022-10-03T06:23:48.622Z,16.73
2022-10-03T06:26:45.707Z,10.13
2022-10-03T06:29:40.823Z,11.13
2022-10-03T06:32:46.208Z,13.90
2022-10-03T06:35:48.458Z,13.07
2022-10-03T06:38:52.204Z,15.43
2022-10-03T06:41:42.910Z,13.27
2022-10-03T06:44:22.225Z,18.07
2022-10-03T06:47:23.278Z,9.13
2022-10-03T06:50:14.080Z,11.07
2022-10-03T06:53:07.902Z,15.30
2022-10-03T06:56:12.470Z,12.53
2022-10-03T06:59:10.289Z,13.30
2022-10-03T07:01:59.629Z,13.80
2022-10-03T07:04:53.011Z,9.80
2022-10-03T07:07:45.868Z,9.87
2022-10-03T07:10:23.020Z,9.73
2022-10-03T07:13:21.172Z,19.00
2022-10-03T07:16:26.480Z,8.30
2022-10-03T07:19:26.898Z,13.47
2022-10-03T07:22:33.460Z,10.10
2022-10-03T07:25:29.946Z,8.83
2022-10-03T07:28:05.794Z,8.20
2022-10-03T07:30:37.381Z,9.03
2022-10-03T07:33:27.874Z,15.17
2022-10-03T07:36:36.408Z,21.07
2022-10-03T07:39:31.558Z,19.57
2022-10-03T07:42:08.782Z,14.67
2022-10-03T07:45:20.834Z,40.50
2022-10-03T07:48:13.473Z,88.77
2022-10-03T07:51:01.217Z,45.90
2022-10-03T07:54:06.100Z,34.80
2022-10-03T07:57:06.738Z,37.73
2022-10-03T08:00:09.662Z,99.20
2022-10-03T08:03:16.605Z,35.50
2022-10-03T08:05:51.179Z,115.90
2022-10-03T08:08:42.446Z,72.00
2022-10-03T08:11:37.849Z,27.97
2022-10-03T08:14:18.235Z,19.40
2022-10-03T08:17:17.617Z,11.30
2022-10-03T08:20:16.504Z,11.00
2022-10-03T08:22:50.738Z,10.00
2022-10-03T08:25:29.132Z,8.83
2022-10-03T08:28:14.468Z,11.40
2022-10-03T08:30:53.481Z,9.53
2022-10-03T08:33:32.199Z,9.53
2022-10-03T08:36:50.641Z,7.57
2022-10-03T08:39:28.843Z,11.10
2022-10-03T08:42:34.149Z,10.50
2022-10-03T08:45:18.946Z,12.60
2022-10-03T08:48:03.205Z,10.20
2022-10-03T08:50:46.870Z,14.30
2022-10-03T08:53:51.030Z,13.63
2022-10-03T08:56:20.410Z,18.43
2022-10-03T08:59:18.397Z,15.23
2022-10-03T09:02:28.747Z,15.83
2022-10-03T09:05:24.206Z,10.97
2022-10-03T09:08:20.315Z,12.23
2022-10-03T09:11:02.475Z,10.53
2022-10-03T09:14:00.724Z,11.47
2022-10-03T09:16:52.749Z,11.07
2022-10-03T09:19:38.695Z,10.93
2022-10-03T09:22:31.807Z,8.10
2022-10-03T09:25:15.167Z,7.40
2022-10-03T09:27:47.998Z,8.27
2022-10-03T09:30:38.493Z,7.87
2022-10-03T09:33:24.732Z,9.57
2022-10-03T09:36:01.714Z,8.03
2022-10-03T09:38:45.350Z,8.37
2022-10-03T09:41:29.078Z,7.10
2022-10-03T09:44:09.191Z,5.03
2022-10-03T09:47:28.302Z,7.63
2022-10-03T09:50:33.491Z,10.03
2022-10-03T09:53:20.695Z,3.90
2022-10-03T09:56:02.774Z,5.87
2022-10-03T09:58:46.583Z,5.37
2022-10-03T10:01:20.016Z,5.27
2022-10-03T10:04:50.276Z,6.50
2022-10-03T10:07:43.241Z,5.93
2022-10-03T10:10:54.177Z,4.60
2022-10-03T10:14:10.490Z,4.03
2022-10-03T10:17:09.208Z,4.63
2022-10-03T10:19:46.331Z,7.30
2022-10-03T10:23:02.998Z,6.97
2022-10-03T10:25:43.495Z,4.23
2022-10-03T10:28:34.956Z,4.50
2022-10-03T10:31:32.693Z,3.93
2022-10-03T10:34:25.091Z,9.30
2022-10-03T10:37:35.366Z,8.50
2022-10-03T10:40:38.843Z,4.70
2022-10-03T10:43:40.630Z,4.60
2022-10-03T10:46:32.523Z,5.03
2022-10-03T10:49:28.051Z,8.97
2022-10-03T10:52:25.454Z,5.03
2022-10-03T10:55:19.794Z,4.30
2022-10-03T10:58:27.477Z,5.93
2022-10-03T11:01:11.090Z,4.07
2022-10-03T11:04:15.577Z,4.17
2022-10-03T11:07:20.786Z,5.10
2022-10-03T11:09:54.648Z,5.90
2022-10-03T11:13:14.238Z,8.30
2022-10-03T11:16:35.376Z,5.43
2022-10-03T11:19:48.010Z,4.10
2022-10-03T11:22:46.132Z,5.77
2022-10-03T11:25:55.160Z,5.43
2022-10-03T11:28:48.174Z,4.47
2022-10-03T11:31:50.804Z,4.97
2022-10-03T11:35:02.007Z,3.77
2022-10-03T11:37:38.220Z,4.47
2022-10-03T11:40:20.603Z,3.53
2022-10-03T11:42:56.867Z,9.27
2022-10-03T11:45:29.846Z,3.43
2022-10-03T11:48:03.827Z,4.53
2022-10-03T11:50:39.219Z,13.00
2022-10-03T11:53:15.033Z,3.97
2022-10-03T11:55:44.140Z,2.07
2022-10-03T11:58:22.091Z,5.43
2022-10-03T12:00:55.162Z,4.67
2022-10-03T12:03:26.458Z,4.23
2022-10-03T12:06:16.447Z,2.70
2022-10-03T12:08:58.326Z,3.40
2022-10-03T12:11:28.351Z,3.40
2022-10-03T12:14:10.978Z,4.37
2022-10-03T12:16:57.015Z,4.13
2022-10-03T12:19:31.134Z,5.00
2022-10-03T12:22:00.753Z,2.60
2022-10-03T12:24:30.586Z,4.60
2022-10-03T12:27:02.599Z,3.03
2022-10-03T12:29:32.462Z,3.90
2022-10-03T12:32:20.072Z,5.87
2022-10-03T12:34:51.573Z,6.70
2022-10-03T12:37:35.425Z,4.13
2022-10-03T12:40:07.459Z,4.67
2022-10-03T12:42:36.842Z,2.20
2022-10-03T12:45:06.553Z,6.50
2022-10-03T12:47:55.401Z,4.27
2022-10-03T12:50:32.226Z,2.97
2022-10-03T12:53:08.615Z,5.50
2022-10-03T12:55:38.622Z,3.57
2022-10-03T12:58:07.619Z,3.83
2022-10-03T13:00:36.743Z,4.33
2022-10-03T13:03:23.263Z,6.57
2022-10-03T13:06:33.879Z,8.90
2022-10-03T13:09:17.654Z,2.77
2022-10-03T13:11:59.353Z,5.30
2022-10-03T13:14:33.065Z,5.93
2022-10-03T13:17:05.845Z,5.97
2022-10-03T13:19:37.935Z,2.50
2022-10-03T13:22:12.947Z,4.87
2022-10-03T13:24:42.179Z,2.67
2022-10-03T13:27:33.447Z,8.17
2022-10-03T13:30:06.491Z,8.77
2022-10-03T13:32:35.440Z,4.87
2022-10-03T13:35:36.109Z,4.97
2022-10-03T13:38:31.928Z,4.37
2022-10-03T13:41:04.662Z,8.03
2022-10-03T13:43:36.563Z,7.57
2022-10-03T13:46:06.325Z,5.77
2022-10-03T13:48:34.880Z,6.37
2022-10-03T13:51:05.581Z,5.87
2022-10-03T13:54:00.237Z,3.73
2022-10-03T13:56:46.681Z,5.50
2022-10-03T13:59:25.333Z,4.87
2022-10-03T14:01:56.772Z,5.23
2022-10-03T14:04:40.235Z,7.63
2022-10-03T14:07:11.690Z,4.13
2022-10-03T14:09:52.450Z,5.80
2022-10-03T14:12:43.645Z,3.63
2022-10-03T14:15:25.665Z,4.83
2022-10-03T14:17:56.980Z,4.53
2022-10-03T14:20:28.168Z,4.60
2022-10-03T14:23:02.134Z,5.00
2022-10-03T14:25:32.731Z,8.03
2022-10-03T14:28:02.704Z,7.67
2022-10-03T14:30:35.214Z,10.23
2022-10-03T14:33:10.961Z,11.87
2022-10-03T14:35:41.695Z,10.90
2022-10-03T14:38:58.789Z,4.00
2022-10-03T14:41:41.709Z,7.77
2022-10-03T14:44:13.280Z,6.20
2022-10-03T14:46:48.050Z,8.50
2022-10-03T14:49:47.170Z,7.70
2022-10-03T14:52:10.667Z,6.30
2022-10-03T14:54:39.950Z,2.03
2022-10-03T14:57:15.929Z,6.17
2022-10-03T14:59:44.043Z,6.30
2022-10-03T15:02:28.640Z,4.60
2022-10-03T15:04:57.435Z,2.83
2022-10-03T15:07:35.971Z,6.87
2022-10-03T15:10:04.795Z,10.47
2022-10-03T15:12:33.923Z,8.67
2022-10-03T15:15:03.537Z,5.13
2022-10-03T15:17:34.271Z,6.07
2022-10-03T15:20:02.989Z,7.00
2022-10-03T15:22:33.710Z,4.80
2022-10-03T15:25:06.062Z,7.33
2022-10-03T15:27:34.643Z,11.57
2022-10-03T15:30:03.759Z,7.83
2022-10-03T15:32:36.123Z,3.73
2022-10-03T15:35:04.350Z,5.60
2022-10-03T15:37:35.703Z,3.50
2022-10-03T15:40:07.624Z,4.33
2022-10-03T15:42:45.532Z,6.00
2022-10-03T15:45:19.478Z,4.50
2022-10-03T15:47:49.402Z,3.57
2022-10-03T15:50:20.446Z,5.17
2022-10-03T15:52:52.414Z,4.90
2022-10-03T15:55:21.982Z,3.70
2022-10-03T15:57:52.157Z,3.33
2022-10-03T16:00:21.581Z,6.33
2022-10-03T16:02:54.015Z,5.70
2022-10-03T16:05:23.179Z,5.20
2022-10-03T16:07:56.347Z,4.73
2022-10-03T16:10:26.146Z,6.23
2022-10-03T16:12:58.641Z,3.83
2022-10-03T16:15:29.644Z,3.03
2022-10-03T16:18:00.861Z,5.70
2022-10-03T16:20:30.842Z,7.60
2022-10-03T16:22:59.408Z,5.57
2022-10-03T16:25:28.832Z,5.83
2022-10-03T16:27:58.958Z,4.23
2022-10-03T16:30:28.520Z,8.37
2022-10-03T16:33:03.223Z,4.13
2022-10-03T16:35:36.784Z,11.07
2022-10-03T16:38:08.148Z,10.33
2022-10-03T16:40:37.925Z,12.17
2022-10-03T16:43:09.790Z,13.90
2022-10-03T16:45:41.962Z,10.57
2022-10-03T16:48:38.347Z,7.37
2022-10-03T16:51:07.702Z,7.67
2022-10-03T16:53:36.257Z,6.47
2022-10-03T16:56:06.375Z,7.27
2022-10-03T16:58:34.955Z,5.70
2022-10-03T17:03:56.351Z,6.43
2022-10-03T17:06:27.131Z,4.37
2022-10-03T17:08:55.534Z,5.77
2022-10-03T17:11:26.234Z,7.47
2022-10-03T17:13:55.542Z,5.40
2022-10-03T17:16:28.404Z,5.07
2022-10-03T17:19:08.377Z,10.20
2022-10-03T17:21:37.703Z,6.40
2022-10-03T17:24:07.932Z,7.27
2022-10-03T17:26:38.578Z,5.17
2022-10-03T17:29:12.526Z,5.00
2022-10-03T17:31:42.616Z,6.83
2022-10-03T17:34:13.843Z,5.10
2022-10-03T17:37:12.818Z,7.20
2022-10-03T17:39:49.317Z,4.63
2022-10-03T17:42:26.088Z,4.30
2022-10-03T17:44:59.694Z,8.17
2022-10-03T17:47:35.305Z,7.63
2022-10-03T17:50:07.696Z,4.30
2022-10-03T17:52:37.371Z,4.03
2022-10-03T17:55:06.138Z,5.73
2022-10-03T17:57:37.505Z,6.77
2022-10-03T18:00:08.897Z,8.40
2022-10-03T18:02:38.511Z,4.00
2022-10-03T18:05:15.060Z,8.67
2022-10-03T18:07:44.348Z,3.57
2022-10-03T18:10:23.249Z,7.67
2022-10-03T18:12:53.860Z,6.83
2022-10-03T18:15:51.922Z,3.93
2022-10-03T18:19:01.809Z,6.30
2022-10-03T18:21:40.915Z,5.97
2022-10-03T18:24:44.318Z,6.27
2022-10-03T18:27:52.244Z,5.03
2022-10-03T18:30:21.114Z,4.73
2022-10-03T18:32:49.224Z,6.03
2022-10-03T18:35:19.707Z,5.43
2022-10-03T18:37:55.010Z,4.90
2022-10-03T18:40:26.709Z,4.20
2022-10-03T18:42:54.992Z,6.10
2022-10-03T18:45:27.279Z,9.27
2022-10-03T18:47:57.350Z,5.97
2022-10-03T18:50:28.136Z,7.60
2022-10-03T18:53:00.504Z,3.90
2022-10-03T18:55:29.880Z,5.67
2022-10-03T18:58:01.722Z,6.93
2022-10-03T19:00:31.145Z,4.00
2022-10-03T19:03:00.479Z,8.63
2022-10-03T19:05:30.482Z,4.87
2022-10-03T19:08:04.073Z,4.13
2022-10-03T19:10:38.729Z,3.73
2022-10-03T19:13:14.751Z,8.83
2022-10-03T19:15:53.658Z,3.10
2022-10-03T19:18:23.634Z,5.20
2022-10-03T19:20:52.436Z,6.40
2022-10-03T19:23:26.865Z,9.57
2022-10-03T19:25:57.729Z,5.20
2022-10-03T19:28:28.729Z,3.10
2022-10-03T19:31:02.577Z,6.23
2022-10-03T19:33:31.196Z,10.47
2022-10-03T19:36:01.568Z,3.60
2022-10-03T19:38:32.664Z,6.33
2022-10-03T19:41:01.869Z,9.77
2022-10-03T19:43:40.009Z,6.23
2022-10-03T19:46:25.757Z,6.80
2022-10-03T19:49:04.759Z,5.80
2022-10-03T19:51:32.836Z,6.40
2022-10-03T19:54:03.321Z,4.80
2022-10-03T19:56:32.786Z,5.03
2022-10-03T19:59:02.772Z,5.07
2022-10-03T20:01:35.912Z,7.93
2022-10-03T20:04:04.149Z,6.90
2022-10-03T20:06:33.342Z,4.83
2022-10-03T20:09:03.607Z,5.67
2022-10-03T20:11:41.921Z,4.87
2022-10-03T20:14:14.492Z,6.57
2022-10-03T20:16:43.685Z,9.93
2022-10-03T20:19:13.542Z,14.70
2022-10-03T20:21:41.820Z,8.60
2022-10-03T20:24:14.348Z,6.53
2022-10-03T20:26:45.527Z,3.77
2022-10-03T20:29:20.147Z,4.47
2022-10-03T20:31:48.578Z,3.87
2022-10-03T20:34:17.505Z,6.17
2022-10-03T20:36:47.517Z,6.80
2022-10-03T20:39:18.337Z,4.90
2022-10-03T20:42:01.233Z,4.83
2022-10-03T20:45:03.374Z,5.53
2022-10-03T20:47:41.165Z,4.60
2022-10-03T20:50:11.971Z,9.77
2022-10-03T20:52:40.105Z,5.10
2022-10-03T20:55:09.815Z,6.03
2022-10-03T20:57:39.181Z,7.93
2022-10-03T21:00:10.434Z,7.33
2022-10-03T21:02:40.019Z,7.43
2022-10-03T21:05:12.544Z,4.07
2022-10-03T21:07:42.616Z,7.40
2022-10-03T21:10:19.170Z,4.90
2022-10-03T21:12:48.886Z,3.73
2022-10-03T21:15:25.058Z,6.03
2022-10-03T21:17:55.072Z,3.53
2022-10-03T21:20:24.691Z,6.10
2022-10-03T21:22:53.488Z,6.23
2022-10-03T21:25:25.467Z,4.93
2022-10-03T21:27:54.999Z,5.40
2022-10-03T21:30:24.035Z,12.93
2022-10-03T21:33:00.280Z,4.60
2022-10-03T21:35:29.676Z,7.00
2022-10-03T21:38:05.352Z,4.63
2022-10-03T21:40:59.308Z,6.73
2022-10-03T21:43:35.803Z,8.13
2022-10-03T21:46:08.329Z,4.57
2022-10-03T21:48:39.510Z,4.87
2022-10-03T21:51:14.269Z,5.40
2022-10-03T21:53:45.437Z,5.13
2022-10-03T21:56:22.807Z,5.40
2022-10-03T21:59:07.794Z,5.67
2022-10-03T22:01:37.997Z,8.73
2022-10-03T22:04:07.930Z,8.90
2022-10-03T22:06:38.562Z,10.10
2022-10-03T22:09:12.434Z,7.17
2022-10-03T22:11:44.214Z,4.20
2022-10-03T22:14:18.707Z,4.77
2022-10-03T22:16:50.163Z,8.67
2022-10-03T22:19:21.173Z,7.30
2022-10-03T22:22:07.235Z,10.93
2022-10-03T22:24:40.809Z,3.97
2022-10-03T22:27:12.835Z,5.40
2022-10-03T22:29:45.136Z,5.87
2022-10-03T22:32:16.562Z,9.80
2022-10-03T22:34:46.481Z,3.70
2022-10-03T22:37:14.774Z,7.00
2022-10-03T22:39:43.061Z,6.27
2022-10-03T22:42:14.115Z,5.97
2022-10-03T22:44:44.659Z,6.30
2022-10-03T22:47:14.943Z,6.37
2022-10-03T22:49:44.174Z,7.77
2022-10-03T22:52:17.830Z,7.13
2022-10-03T22:54:46.008Z,8.73
2022-10-03T22:57:15.507Z,4.60
2022-10-03T22:59:44.714Z,5.63
2022-10-03T23:02:12.836Z,5.77
2022-10-03T23:04:44.470Z,6.93
2022-10-03T23:07:33.669Z,9.43
2022-10-03T23:10:08.010Z,4.57
2022-10-03T23:12:39.762Z,6.40
2022-10-03T23:15:08.743Z,3.63
2022-10-03T23:18:00.541Z,9.10
2022-10-03T23:20:43.027Z,3.83
2022-10-03T23:23:14.482Z,5.10
2022-10-03T23:25:46.308Z,5.33
2022-10-03T23:28:19.449Z,8.80
2022-10-03T23:30:49.131Z,7.07
2022-10-03T23:33:18.626Z,6.37
2022-10-03T23:35:46.720Z,5.43
2022-10-03T23:38:52.073Z,7.07
2022-10-03T23:41:31.214Z,5.20
2022-10-03T23:44:00.734Z,4.37
2022-10-03T23:46:29.994Z,7.20
2022-10-03T23:48:59.595Z,4.77
2022-10-03T23:51:29.860Z,7.83
2022-10-03T23:53:58.564Z,5.90
2022-10-03T23:56:30.235Z,7.27
2022-10-03T23:59:09.948Z,6.10
